KCTB

Details ICAO KCTB (CTB)
Name Cut Bank Muni
Region United States
Timezone America/Denver (UTC-7.0)
Plans Departing 2
Arriving 5
Stats Elevation 3,854 ft / 1,175 m (AMSL)
Location 48.608355° -112.376147°
Runways 2
Magnetic Variation 12.919° E
Sunrise 2017-12-17 15:18:20 UTC / 2017-12-17 08:18:20 Local
Sunset 2017-12-17 23:35:57 UTC / 2017-12-17 16:35:57 Local
Advertisement - Login to hide

Runways

ID Width Length Bearing (true) Bearing (mag) Surface Threshold Offset Overrun Length
05 75 ft / 23 m 5,288 ft / 1,612 m 63.82° 50.90° Asphalt 0 ft / 0 m 0 ft / 0 m
13 75 ft / 23 m 5,296 ft / 1,614 m 152.25° 139.33° Asphalt 0 ft / 0 m 2,500 ft / 762 m
23 75 ft / 23 m 5,288 ft / 1,612 m 243.83° 230.91° Asphalt 0 ft / 0 m 0 ft / 0 m
31 75 ft / 23 m 5,296 ft / 1,614 m 332.26° 319.34° Asphalt 0 ft / 0 m 0 ft / 0 m

Map

Weather


0- 5 10 15 20 25 30 35+ Temperature / ° C

Clouds and Precipitation
Forecast for 2017-12-18 06:00 UTC. Updated 2 hours ago

Ground ~20,000 ft ~40,000 ft Winds

METAR

KCTB 180656Z AUTO 25025G36KT 10SM CLR 02/M04 A2960 RMK AO2 PK WND 24043/0609 SLP042 T00221039 400221050

TAF

TAF KCTB 180526Z 1806/1906 25018G25KT P6SM SCT070 BKN130 FM181700 30017G27KT 3/4SM -SN BR SCT020 OVC040 FM190300 04009KT 3/4SM -SN BR SCT010 OVC025

Frequencies

Recorded 119.02 MHz ASOS
Unicom 122.80 MHz CTAF/UNICOM
Unicom 122.80 MHz CTAF/UNICOM
Warning: Do not use this data for real-world aviation or navigation. No guarantee of current accuracy is given.